createdAt,value
2018-07-08T00:00:45.202Z,6.36
2018-07-08T00:06:40.237Z,6.25
2018-07-08T00:12:35.235Z,6.64
2018-07-08T00:18:30.208Z,7.43
2018-07-08T00:24:25.178Z,7.34
2018-07-08T00:30:20.204Z,7.91
2018-07-08T00:36:15.180Z,7.5
2018-07-08T00:42:10.187Z,7.37
2018-07-08T00:48:05.221Z,8.23
2018-07-08T00:54:00.171Z,7.17
2018-07-08T00:59:55.229Z,7.16
2018-07-08T01:05:50.190Z,7.52
2018-07-08T01:11:45.175Z,6.91
2018-07-08T01:17:40.172Z,6.27
2018-07-08T01:23:35.177Z,6.4
2018-07-08T01:29:30.186Z,6.02
2018-07-08T01:35:25.228Z,6.37
2018-07-08T01:41:20.203Z,6.73
2018-07-08T01:47:15.180Z,6.56
2018-07-08T01:53:10.216Z,6.77
2018-07-08T01:59:05.226Z,6.49
2018-07-08T02:05:00.256Z,6.24
2018-07-08T02:10:55.195Z,6.7
2018-07-08T02:16:50.194Z,6.18
2018-07-08T02:22:45.192Z,6.67
2018-07-08T02:28:40.201Z,6.96
2018-07-08T02:34:35.209Z,6
2018-07-08T02:40:30.235Z,6.57
2018-07-08T02:46:25.221Z,6.39
2018-07-08T02:52:20.214Z,6.09
2018-07-08T02:58:15.201Z,6.8
2018-07-08T03:04:10.185Z,5.97
2018-07-08T03:10:05.213Z,6.57
2018-07-08T03:16:00.232Z,7.86
2018-07-08T03:21:55.234Z,6.6
2018-07-08T03:27:50.275Z,5.67
2018-07-08T03:33:45.187Z,5.71
2018-07-08T03:39:40.189Z,6.55
2018-07-08T03:45:35.248Z,6.71
2018-07-08T03:51:30.208Z,6.71
2018-07-08T03:57:25.203Z,6.42
2018-07-08T04:03:20.202Z,5.67
2018-07-08T04:09:15.319Z,6.2
2018-07-08T04:15:10.223Z,6.73
2018-07-08T04:21:05.210Z,7.37
2018-07-08T04:27:00.204Z,7.06
2018-07-08T04:32:55.190Z,7.77
2018-07-08T04:38:50.229Z,7.44
2018-07-08T04:44:45.220Z,6.99
2018-07-08T04:50:40.204Z,7.2
2018-07-08T04:56:35.208Z,6.4
2018-07-08T05:02:30.232Z,6.42
2018-07-08T05:08:25.208Z,6.44
2018-07-08T05:20:15.217Z,7.56
2018-07-08T05:26:10.207Z,9.28
2018-07-08T05:32:05.295Z,6.31
2018-07-08T05:38:00.218Z,6.1
2018-07-08T05:43:55.216Z,7.35
2018-07-08T05:49:50.224Z,7.36
2018-07-08T05:55:45.227Z,7.05
2018-07-08T06:01:40.227Z,7.07
2018-07-08T06:07:35.217Z,7.46
2018-07-08T06:19:25.239Z,7.85
2018-07-08T06:19:25.271Z,7.59
2018-07-08T06:25:20.240Z,8.54
2018-07-08T06:31:15.209Z,8.18
2018-07-08T06:37:10.215Z,7.88
2018-07-08T06:43:05.258Z,8.53
2018-07-08T06:49:00.231Z,7.5
2018-07-08T06:54:55.266Z,7.49
2018-07-08T07:00:50.285Z,7.49
2018-07-08T07:06:45.353Z,6.84
2018-07-08T07:12:40.213Z,8.1
2018-07-08T07:18:35.271Z,7.88
2018-07-08T07:24:30.214Z,7.63
2018-07-08T07:30:25.214Z,7.29
2018-07-08T07:36:20.227Z,7.91
2018-07-08T07:42:15.237Z,7.2
2018-07-08T07:48:10.276Z,6.46
2018-07-08T07:54:05.237Z,6.67
2018-07-08T08:00:00.235Z,6.49
2018-07-08T08:05:55.278Z,7.08
2018-07-08T08:11:50.232Z,7.16
2018-07-08T08:17:45.237Z,6.63
2018-07-08T08:23:40.225Z,6.69
2018-07-08T08:29:35.232Z,6.29
2018-07-08T08:35:30.238Z,6.87
2018-07-08T08:41:25.258Z,6.84
2018-07-08T08:47:20.255Z,6.93
2018-07-08T08:53:15.267Z,6.28
2018-07-08T08:59:10.226Z,5.99
2018-07-08T09:05:05.251Z,5.5
2018-07-08T09:11:00.228Z,5.93
2018-07-08T09:16:55.266Z,5.68
2018-07-08T09:22:50.264Z,4.75
2018-07-08T09:34:40.311Z,5.65
2018-07-08T09:34:40.351Z,5.6
2018-07-08T09:40:35.272Z,5.62
2018-07-08T09:46:30.260Z,4.84
2018-07-08T09:52:25.267Z,4.91
2018-07-08T09:58:20.244Z,4.61
2018-07-08T10:04:15.274Z,5.39
2018-07-08T10:10:10.268Z,4.5
2018-07-08T10:16:05.270Z,4.11
2018-07-08T10:22:00.264Z,3.99
2018-07-08T10:27:55.261Z,7.76
2018-07-08T10:33:50.266Z,8.02
2018-07-08T10:39:45.256Z,4.75
2018-07-08T10:45:40.259Z,3.27
2018-07-08T10:51:35.321Z,3.95
2018-07-08T10:57:30.252Z,4.46
2018-07-08T11:03:25.252Z,4.42
2018-07-08T11:09:20.319Z,4.45
2018-07-08T11:15:15.320Z,4.18
2018-07-08T11:21:10.274Z,4.28
2018-07-08T11:27:05.271Z,4.44
2018-07-08T11:33:00.272Z,4.31
2018-07-08T11:38:55.276Z,4.03
2018-07-08T11:44:50.271Z,4.95
2018-07-08T11:50:45.313Z,4.28
2018-07-08T11:56:40.264Z,3.97
2018-07-08T12:02:35.257Z,4.13
2018-07-08T12:08:30.294Z,4.07
2018-07-08T12:14:25.326Z,4
2018-07-08T12:20:20.370Z,4.15
2018-07-08T12:26:15.282Z,4.11
2018-07-08T12:32:10.336Z,3.89
2018-07-08T12:38:05.293Z,4.21
2018-07-08T12:44:00.331Z,4.05
2018-07-08T12:49:55.319Z,3.63
2018-07-08T12:55:50.301Z,3.99
2018-07-08T13:01:45.259Z,3.65
2018-07-08T13:07:40.284Z,3.97
2018-07-08T13:13:35.287Z,4.24
2018-07-08T13:19:30.289Z,3.73
2018-07-08T13:25:25.313Z,4.16
2018-07-08T13:31:20.336Z,4.05
2018-07-08T13:37:15.304Z,3.72
2018-07-08T13:43:10.288Z,3.97
2018-07-08T13:49:05.286Z,4.48
2018-07-08T13:55:00.267Z,4.52
2018-07-08T14:00:55.376Z,4.86
2018-07-08T14:06:50.302Z,4.25
2018-07-08T14:12:45.283Z,4.64
2018-07-08T14:18:40.284Z,4.77
2018-07-08T14:24:35.275Z,4.6
2018-07-08T14:30:30.285Z,4.77
2018-07-08T14:36:25.312Z,4.58
2018-07-08T14:42:20.291Z,4.72
2018-07-08T14:48:15.314Z,4.13
2018-07-08T14:54:10.406Z,4.76
2018-07-08T15:00:05.301Z,3.82
2018-07-08T15:06:00.304Z,4.53
2018-07-08T15:11:55.304Z,4.26
2018-07-08T15:17:52.519Z,4.66
2018-07-08T15:23:45.303Z,4.67
2018-07-08T15:29:40.302Z,4.69
2018-07-08T15:35:35.301Z,4.14
2018-07-08T15:41:30.333Z,4.18
2018-07-08T15:47:25.397Z,4.38
2018-07-08T15:53:20.347Z,4.32
2018-07-08T15:59:15.289Z,4.05
2018-07-08T16:05:10.330Z,4.41
2018-07-08T16:11:05.320Z,4.62
2018-07-08T16:17:00.308Z,5.43
2018-07-08T16:22:55.327Z,4.81
2018-07-08T16:28:50.333Z,4.63
2018-07-08T16:34:45.308Z,4.46
2018-07-08T16:40:40.315Z,4.54
2018-07-08T16:46:35.321Z,5.17
2018-07-08T16:52:30.296Z,5.8
2018-07-08T16:58:25.300Z,5.28
2018-07-08T17:04:20.320Z,5.93
2018-07-08T17:10:15.328Z,5.63
2018-07-08T17:16:10.387Z,5.57
2018-07-08T17:22:05.323Z,5.86
2018-07-08T17:28:00.333Z,5.15
2018-07-08T21:48:24.230Z,5.23
2018-07-08T22:00:15.642Z,4.68
2018-07-08T22:06:17.507Z,5.55
2018-07-08T22:12:11.431Z,5.16
2018-07-08T22:23:50.365Z,5.06
2018-07-08T22:23:59.006Z,5.15
2018-07-08T22:29:45.636Z,5.47
2018-07-08T22:35:40.952Z,4.6
2018-07-08T22:41:35.362Z,5.39
